createdAt,value
2023-04-26T00:01:58.892Z,0.30
2023-04-26T00:04:25.937Z,0.30
2023-04-26T00:06:54.851Z,0.32
2023-04-26T00:09:22.001Z,0.30
2023-04-26T00:11:49.162Z,0.55
2023-04-26T00:14:16.288Z,0.60
2023-04-26T00:16:43.498Z,0.65
2023-04-26T00:19:11.924Z,0.57
2023-04-26T00:21:39.424Z,0.40
2023-04-26T00:24:06.711Z,0.52
2023-04-26T00:26:34.926Z,0.40
2023-04-26T00:29:02.949Z,0.80
2023-04-26T00:31:30.152Z,1.25
2023-04-26T00:33:56.969Z,0.93
2023-04-26T00:36:23.777Z,0.98
2023-04-26T00:38:50.922Z,0.80
2023-04-26T00:41:17.892Z,0.50
2023-04-26T00:43:45.227Z,0.50
2023-04-26T00:46:12.564Z,0.40
2023-04-26T00:48:39.683Z,0.30
2023-04-26T00:51:07.116Z,0.32
2023-04-26T00:53:36.787Z,0.70
2023-04-26T00:56:08.166Z,0.70
2023-04-26T00:58:36.539Z,0.30
2023-04-26T01:01:03.837Z,1.23
2023-04-26T01:03:31.158Z,0.40
2023-04-26T01:05:58.488Z,0.80
2023-04-26T01:08:25.568Z,0.40
2023-04-26T01:10:53.084Z,1.67
2023-04-26T01:13:19.906Z,0.50
2023-04-26T01:15:48.191Z,0.77
2023-04-26T01:18:15.492Z,0.30
2023-04-26T01:20:43.013Z,0.40
2023-04-26T01:23:10.471Z,0.32
2023-04-26T01:25:37.475Z,1.38
2023-04-26T01:28:04.284Z,0.25
2023-04-26T01:30:31.055Z,0.30
2023-04-26T01:32:57.852Z,0.40
2023-04-26T01:35:24.598Z,0.50
2023-04-26T01:37:51.318Z,7.97
2023-04-26T01:40:18.644Z,0.40
2023-04-26T01:42:45.366Z,0.20
2023-04-26T01:45:12.238Z,0.88
2023-04-26T01:47:39.031Z,0.88
2023-04-26T01:50:06.683Z,1.27
2023-04-26T01:52:33.558Z,0.20
2023-04-26T01:55:00.333Z,0.28
2023-04-26T01:57:27.139Z,1.27
2023-04-26T01:59:56.021Z,0.40
2023-04-26T02:02:22.917Z,0.60
2023-04-26T02:04:49.733Z,0.95
2023-04-26T02:07:16.514Z,0.40
2023-04-26T02:09:43.333Z,0.43
2023-04-26T02:12:10.066Z,0.30
2023-04-26T02:14:37.199Z,0.40
2023-04-26T02:17:04.906Z,0.30
2023-04-26T02:19:32.034Z,0.45
2023-04-26T02:21:59.257Z,0.43
2023-04-26T02:24:26.601Z,1.42
2023-04-26T02:26:55.149Z,1.15
2023-04-26T02:29:32.703Z,0.40
2023-04-26T02:32:07.706Z,0.50
2023-04-26T02:34:35.517Z,0.40
2023-04-26T02:37:02.809Z,0.40
2023-04-26T02:39:30.004Z,0.30
2023-04-26T02:41:57.784Z,0.30
2023-04-26T02:44:24.929Z,0.85
2023-04-26T02:46:52.113Z,1.10
2023-04-26T02:49:19.303Z,0.40
2023-04-26T02:51:46.450Z,0.82
2023-04-26T02:54:13.647Z,0.43
2023-04-26T02:56:40.939Z,0.43
2023-04-26T02:59:08.068Z,0.68
2023-04-26T03:01:35.579Z,0.70
2023-04-26T03:04:02.898Z,0.88
2023-04-26T03:06:30.289Z,0.38
2023-04-26T03:08:57.460Z,1.45
2023-04-26T03:11:24.574Z,1.17
2023-04-26T03:13:51.735Z,1.88
2023-04-26T03:16:23.680Z,0.75
2023-04-26T03:18:51.352Z,1.38
2023-04-26T03:21:18.709Z,0.95
2023-04-26T03:23:46.241Z,0.70
2023-04-26T03:26:13.467Z,0.73
2023-04-26T03:28:40.603Z,0.90
2023-04-26T03:31:08.296Z,0.40
2023-04-26T03:33:35.443Z,1.80
2023-04-26T03:36:02.667Z,1.08
2023-04-26T03:38:29.871Z,1.95
2023-04-26T03:40:57.079Z,1.33
2023-04-26T03:43:24.230Z,0.70
2023-04-26T03:45:52.197Z,0.40
2023-04-26T03:48:19.405Z,0.88
2023-04-26T03:50:46.564Z,0.60
2023-04-26T03:53:13.769Z,1.38
2023-04-26T03:55:40.916Z,1.50
2023-04-26T03:58:08.339Z,0.85
2023-04-26T04:00:38.017Z,1.30
2023-04-26T04:03:05.548Z,0.50
2023-04-26T04:05:32.942Z,1.38
2023-04-26T04:08:00.272Z,0.50
2023-04-26T04:10:27.429Z,0.50
2023-04-26T04:12:54.587Z,0.43
2023-04-26T04:15:22.009Z,0.47
2023-04-26T04:17:49.211Z,0.40
2023-04-26T04:20:16.467Z,1.52
2023-04-26T04:22:43.676Z,0.50
2023-04-26T04:25:11.132Z,0.68
2023-04-26T04:27:38.638Z,0.60
2023-04-26T04:30:07.784Z,0.80
2023-04-26T04:32:35.221Z,0.65
2023-04-26T04:35:02.586Z,0.65
2023-04-26T04:37:29.769Z,0.47
2023-04-26T04:39:56.934Z,0.60
2023-04-26T04:42:24.076Z,1.27
2023-04-26T04:44:51.303Z,0.82
2023-04-26T04:47:18.432Z,0.60
2023-04-26T04:49:45.956Z,0.60
2023-04-26T04:52:13.123Z,0.57
2023-04-26T04:54:40.269Z,1.02
2023-04-26T04:57:07.428Z,0.90
2023-04-26T04:59:34.684Z,0.85
2023-04-26T05:02:01.907Z,0.60
2023-04-26T05:04:29.331Z,1.38
2023-04-26T05:06:56.768Z,0.50
2023-04-26T05:09:23.922Z,1.23
2023-04-26T05:11:51.178Z,0.77
2023-04-26T05:14:18.373Z,0.38
2023-04-26T05:16:45.608Z,1.23
2023-04-26T05:19:13.439Z,0.47
2023-04-26T05:21:40.655Z,0.40
2023-04-26T05:24:07.857Z,0.40
2023-04-26T05:26:35.954Z,0.82
2023-04-26T05:29:03.253Z,0.50
2023-04-26T05:31:30.569Z,0.47
2023-04-26T05:33:57.307Z,0.80
2023-04-26T05:36:24.529Z,0.32
2023-04-26T05:38:51.716Z,0.43
2023-04-26T05:41:18.896Z,0.30
2023-04-26T05:43:47.516Z,0.43
2023-04-26T05:46:14.583Z,1.02
2023-04-26T05:48:41.719Z,0.50
2023-04-26T05:51:08.494Z,0.30
2023-04-26T05:53:35.252Z,0.30
2023-04-26T05:56:02.124Z,0.35
2023-04-26T05:58:28.926Z,0.43
2023-04-26T06:00:55.939Z,1.92
2023-04-26T06:03:22.803Z,0.52
2023-04-26T06:05:49.770Z,1.52
2023-04-26T06:08:17.022Z,0.95
2023-04-26T06:10:44.209Z,1.33
2023-04-26T06:13:11.622Z,1.52
2023-04-26T06:15:38.879Z,0.80
2023-04-26T06:18:07.073Z,1.05
2023-04-26T06:20:35.125Z,1.30
2023-04-26T06:23:02.279Z,0.85
2023-04-26T06:25:29.405Z,1.65
2023-04-26T06:27:56.641Z,0.90
2023-04-26T06:30:23.410Z,0.75
2023-04-26T06:32:50.551Z,1.20
2023-04-26T06:35:17.553Z,0.80
2023-04-26T06:37:44.303Z,2.72
2023-04-26T06:40:14.039Z,0.88
2023-04-26T06:42:40.880Z,1.50
2023-04-26T06:45:08.337Z,1.00
2023-04-26T06:47:35.078Z,1.02
2023-04-26T06:50:02.739Z,0.60
2023-04-26T06:52:30.037Z,0.70
2023-04-26T06:54:57.722Z,0.98
2023-04-26T06:57:24.703Z,0.93
2023-04-26T06:59:51.562Z,0.68
2023-04-26T07:02:18.529Z,1.25
2023-04-26T07:04:45.952Z,3.33
2023-04-26T07:07:14.370Z,2.85
2023-04-26T07:09:41.189Z,3.47
2023-04-26T07:12:08.010Z,2.92
2023-04-26T07:14:39.449Z,5.50
2023-04-26T07:17:07.247Z,4.00
2023-04-26T07:19:34.073Z,3.25
2023-04-26T07:22:01.330Z,2.75
2023-04-26T07:24:28.808Z,4.05
2023-04-26T07:26:56.300Z,4.25
2023-04-26T07:29:23.268Z,3.28
2023-04-26T07:31:50.082Z,4.57
2023-04-26T07:34:17.148Z,6.07
2023-04-26T07:36:43.871Z,4.32
2023-04-26T07:39:11.808Z,4.70
2023-04-26T07:41:38.686Z,3.83
2023-04-26T07:44:05.493Z,2.63
2023-04-26T07:46:34.904Z,3.30
2023-04-26T07:49:02.159Z,3.20
2023-04-26T07:51:29.433Z,3.88
2023-04-26T07:53:56.652Z,5.13
2023-04-26T07:56:24.350Z,3.65
2023-04-26T07:58:51.754Z,2.47
2023-04-26T08:01:18.969Z,3.47
2023-04-26T08:03:46.347Z,2.42
2023-04-26T08:06:13.789Z,2.92
2023-04-26T08:08:44.876Z,2.47
2023-04-26T08:11:12.422Z,3.05
2023-04-26T08:13:39.583Z,2.22
2023-04-26T08:16:07.044Z,2.60
2023-04-26T08:18:34.252Z,3.20
2023-04-26T08:21:01.605Z,5.30
2023-04-26T08:23:28.860Z,4.60
2023-04-26T08:25:56.037Z,4.40
2023-04-26T08:28:23.206Z,3.63
2023-04-26T08:30:50.429Z,4.30
2023-04-26T08:33:19.074Z,3.60
2023-04-26T08:35:46.538Z,2.22
2023-04-26T08:38:13.987Z,3.15
2023-04-26T08:40:42.551Z,4.50
2023-04-26T08:43:10.651Z,3.95
2023-04-26T08:45:39.115Z,4.25
2023-04-26T08:48:10.444Z,4.28
2023-04-26T08:50:39.441Z,3.38
2023-04-26T08:53:06.868Z,3.55
2023-04-26T08:55:34.249Z,2.63
2023-04-26T08:58:02.055Z,4.95
2023-04-26T09:00:29.341Z,4.85
2023-04-26T09:02:56.672Z,2.30
2023-04-26T09:05:24.840Z,1.83
2023-04-26T09:07:53.751Z,3.22
2023-04-26T09:10:22.351Z,3.13
2023-04-26T09:12:55.700Z,4.65
2023-04-26T09:15:23.985Z,4.95
2023-04-26T09:17:52.390Z,4.72
2023-04-26T09:20:27.849Z,4.90
2023-04-26T09:23:05.127Z,3.55
2023-04-26T09:25:32.671Z,3.90
2023-04-26T09:28:00.993Z,4.07
2023-04-26T09:30:28.870Z,4.72
2023-04-26T09:33:04.949Z,3.70
2023-04-26T09:35:35.941Z,2.20
2023-04-26T09:38:14.598Z,3.78
2023-04-26T09:40:49.450Z,3.75
2023-04-26T09:43:18.243Z,2.95
2023-04-26T09:45:58.885Z,3.03
2023-04-26T09:48:30.735Z,3.33
2023-04-26T09:51:10.183Z,3.33
2023-04-26T09:53:39.058Z,2.50
2023-04-26T09:56:19.935Z,1.58
2023-04-26T09:58:47.162Z,2.15
2023-04-26T10:01:18.932Z,1.45
2023-04-26T10:03:47.237Z,1.83
2023-04-26T10:06:14.953Z,2.17
2023-04-26T10:08:42.371Z,2.65
2023-04-26T10:11:11.498Z,3.55
2023-04-26T10:13:39.186Z,3.55
2023-04-26T10:16:06.851Z,3.15
2023-04-26T10:18:34.616Z,3.75
2023-04-26T10:21:05.760Z,2.10
2023-04-26T10:23:33.319Z,1.83
2023-04-26T10:26:00.520Z,1.98
2023-04-26T10:28:58.352Z,2.75
2023-04-26T10:31:49.054Z,1.25
2023-04-26T10:34:19.939Z,3.42
2023-04-26T10:37:06.166Z,2.33
2023-04-26T10:39:33.383Z,2.85
2023-04-26T10:42:26.575Z,3.55
2023-04-26T10:44:54.217Z,1.50
2023-04-26T10:47:22.908Z,2.03
2023-04-26T10:49:50.369Z,1.05
2023-04-26T10:52:23.247Z,1.25
2023-04-26T10:54:57.498Z,1.23
2023-04-26T10:57:27.023Z,2.72
2023-04-26T11:00:16.600Z,3.17
2023-04-26T11:02:53.552Z,1.63
2023-04-26T11:05:41.096Z,2.47
2023-04-26T11:08:21.964Z,1.95
2023-04-26T11:10:53.474Z,1.42
2023-04-26T11:13:21.390Z,0.98
2023-04-26T11:15:50.044Z,2.05
2023-04-26T11:18:22.595Z,1.17
2023-04-26T11:20:50.069Z,4.20
2023-04-26T11:23:19.689Z,2.60
2023-04-26T11:25:48.581Z,2.63
2023-04-26T11:28:15.904Z,2.65
2023-04-26T11:30:44.562Z,3.70
2023-04-26T11:33:24.981Z,3.67
2023-04-26T11:35:56.585Z,2.67
2023-04-26T11:38:24.498Z,1.55
2023-04-26T11:40:57.462Z,2.67
2023-04-26T11:43:31.578Z,2.42
2023-04-26T11:46:02.149Z,1.88
2023-04-26T11:48:30.186Z,2.88
2023-04-26T11:50:58.879Z,2.28
2023-04-26T11:53:26.142Z,1.80
2023-04-26T11:55:53.335Z,1.45
2023-04-26T11:58:20.620Z,2.03
2023-04-26T12:01:01.889Z,1.65
2023-04-26T12:03:38.288Z,1.90
2023-04-26T12:06:06.266Z,1.55
2023-04-26T12:08:34.259Z,2.22
2023-04-26T12:11:02.858Z,1.30
2023-04-26T12:13:30.895Z,1.13
2023-04-26T12:15:58.173Z,0.60
2023-04-26T12:18:32.806Z,1.42
2023-04-26T12:21:00.371Z,0.77
2023-04-26T12:23:28.065Z,1.92
2023-04-26T12:25:56.826Z,1.00
2023-04-26T12:28:24.798Z,2.03
2023-04-26T12:30:52.329Z,0.98
2023-04-26T12:33:22.916Z,0.60
2023-04-26T12:35:50.991Z,1.02
2023-04-26T12:38:19.000Z,0.90
2023-04-26T12:40:46.839Z,0.93
2023-04-26T12:43:15.770Z,1.02
2023-04-26T12:45:43.134Z,1.05
2023-04-26T12:48:10.486Z,2.33
2023-04-26T12:50:37.773Z,1.00
2023-04-26T12:53:04.993Z,1.55
2023-04-26T12:55:33.042Z,2.30
2023-04-26T12:58:00.657Z,4.95
2023-04-26T13:00:27.896Z,3.22
2023-04-26T13:02:55.922Z,3.42
2023-04-26T13:05:24.907Z,2.13
2023-04-26T13:07:52.173Z,4.28
2023-04-26T13:10:19.702Z,3.22
2023-04-26T13:12:46.947Z,2.05
2023-04-26T13:15:15.178Z,3.42
2023-04-26T13:17:44.501Z,3.97
2023-04-26T13:20:12.012Z,1.90
2023-04-26T13:22:41.912Z,2.22
2023-04-26T13:25:10.329Z,1.08
2023-04-26T13:27:37.566Z,1.50
2023-04-26T13:30:04.921Z,2.42
2023-04-26T13:32:32.228Z,1.60
2023-04-26T13:34:59.803Z,1.95
2023-04-26T13:37:27.030Z,1.88
2023-04-26T13:39:54.464Z,2.30
2023-04-26T13:42:21.918Z,2.85
2023-04-26T13:44:49.128Z,1.75
2023-04-26T13:47:17.139Z,1.75
2023-04-26T13:49:44.898Z,1.30
2023-04-26T13:52:12.410Z,4.22
2023-04-26T13:54:42.378Z,1.55
2023-04-26T13:57:09.707Z,0.90
2023-04-26T13:59:36.945Z,2.28
2023-04-26T14:02:04.292Z,0.95
2023-04-26T14:04:31.959Z,1.75
2023-04-26T14:06:59.550Z,2.58
2023-04-26T14:09:26.759Z,1.55
2023-04-26T14:12:04.361Z,1.42
2023-04-26T14:14:35.224Z,2.15
2023-04-26T14:17:02.414Z,1.83
2023-04-26T14:19:29.798Z,2.25
2023-04-26T14:21:57.054Z,0.80
2023-04-26T14:24:24.327Z,0.80
2023-04-26T14:26:51.887Z,1.50
2023-04-26T14:29:19.159Z,1.33
2023-04-26T14:31:46.576Z,3.85
2023-04-26T14:34:13.874Z,2.95
2023-04-26T14:36:41.318Z,1.65
2023-04-26T14:39:08.731Z,1.30
2023-04-26T14:41:35.992Z,1.35
2023-04-26T14:44:03.735Z,1.73
2023-04-26T14:46:31.443Z,2.13
2023-04-26T14:48:58.671Z,1.08
2023-04-26T14:51:26.481Z,1.20
2023-04-26T14:53:53.703Z,1.75
2023-04-26T14:56:20.950Z,1.50
2023-04-26T14:58:48.385Z,2.13
2023-04-26T15:01:16.977Z,2.05
2023-04-26T15:03:45.897Z,1.92
2023-04-26T15:06:13.263Z,1.60
2023-04-26T15:08:40.592Z,2.58
2023-04-26T15:11:07.896Z,1.90
2023-04-26T15:13:35.168Z,2.08
2023-04-26T15:16:07.890Z,3.50
2023-04-26T15:18:35.477Z,1.90
2023-04-26T15:21:02.827Z,3.00
2023-04-26T15:23:30.046Z,2.35
2023-04-26T15:26:01.941Z,1.20
2023-04-26T15:28:29.210Z,1.67
2023-04-26T15:31:06.020Z,1.70
2023-04-26T15:33:33.279Z,1.10
2023-04-26T15:36:00.575Z,1.27
2023-04-26T15:38:28.101Z,0.60
2023-04-26T15:40:55.515Z,1.30
2023-04-26T15:43:22.736Z,1.88
2023-04-26T15:45:50.284Z,2.47
2023-04-26T15:48:17.573Z,2.17
2023-04-26T15:50:44.819Z,4.05
2023-04-26T15:53:12.150Z,2.60
2023-04-26T15:55:39.330Z,2.42
2023-04-26T15:58:06.544Z,2.22
2023-04-26T16:00:34.123Z,2.88
2023-04-26T16:03:02.222Z,3.10
2023-04-26T16:05:31.563Z,1.20
2023-04-26T16:07:59.890Z,3.20
2023-04-26T16:10:27.331Z,1.23
2023-04-26T16:12:54.562Z,1.58
2023-04-26T16:15:21.837Z,0.80
2023-04-26T16:17:49.095Z,3.28
2023-04-26T16:20:16.410Z,1.73
2023-04-26T16:22:45.147Z,1.60
2023-04-26T16:25:12.629Z,1.98
2023-04-26T16:27:39.935Z,1.20
2023-04-26T16:30:07.544Z,1.63
2023-04-26T16:32:34.908Z,1.75
2023-04-26T16:35:02.531Z,1.45
2023-04-26T16:37:29.792Z,1.88
2023-04-26T16:39:57.204Z,1.30
2023-04-26T16:42:24.496Z,1.15
2023-04-26T16:44:51.746Z,1.55
2023-04-26T16:47:18.952Z,2.08
2023-04-26T16:49:46.434Z,0.70
2023-04-26T16:52:13.671Z,0.82
2023-04-26T16:54:40.992Z,2.22
2023-04-26T16:57:09.995Z,1.25
2023-04-26T16:59:37.360Z,1.25
2023-04-26T17:02:04.586Z,1.60
2023-04-26T17:04:32.017Z,1.25
2023-04-26T17:06:59.580Z,0.40
2023-04-26T17:09:27.657Z,0.82
2023-04-26T17:11:55.002Z,0.50
2023-04-26T17:14:22.234Z,0.95
2023-04-26T17:16:49.464Z,1.50
2023-04-26T17:19:16.726Z,2.30
2023-04-26T17:21:43.988Z,1.98
2023-04-26T17:24:11.571Z,3.45
2023-04-26T17:26:38.828Z,2.00
2023-04-26T17:29:06.108Z,3.28
2023-04-26T17:31:33.339Z,1.50
2023-04-26T17:34:02.022Z,5.93
2023-04-26T17:36:32.010Z,7.70
2023-04-26T17:38:59.254Z,4.93
2023-04-26T17:41:26.482Z,3.53
2023-04-26T17:43:53.716Z,4.07
2023-04-26T17:46:21.067Z,4.15
2023-04-26T17:48:48.347Z,2.40
2023-04-26T17:51:15.890Z,2.28
2023-04-26T17:53:43.153Z,1.63
2023-04-26T17:56:10.592Z,0.75
2023-04-26T17:58:37.944Z,1.85
2023-04-26T18:01:05.423Z,0.30
2023-04-26T18:03:35.748Z,1.27
2023-04-26T18:06:03.598Z,0.55
2023-04-26T18:08:30.973Z,1.48
2023-04-26T18:10:58.600Z,0.70
2023-04-26T18:13:25.961Z,1.30
2023-04-26T18:15:55.365Z,0.43
2023-04-26T18:18:22.555Z,0.32
2023-04-26T18:20:49.805Z,0.45
2023-04-26T18:23:17.548Z,0.35
2023-04-26T18:25:45.435Z,0.80
2023-04-26T18:28:13.002Z,0.20
2023-04-26T18:30:40.272Z,0.20
2023-04-26T18:33:07.574Z,0.30
2023-04-26T18:35:34.836Z,0.30
2023-04-26T18:38:02.095Z,0.20
2023-04-26T18:40:29.297Z,0.30
2023-04-26T18:42:56.561Z,0.40
2023-04-26T18:45:23.933Z,0.30
2023-04-26T18:47:53.958Z,1.02
2023-04-26T18:50:22.392Z,0.32
2023-04-26T18:52:49.574Z,0.88
2023-04-26T18:55:16.865Z,0.50
2023-04-26T18:57:44.224Z,0.98
2023-04-26T19:00:11.955Z,0.43
2023-04-26T19:02:42.389Z,0.30
2023-04-26T19:05:10.677Z,0.65
2023-04-26T19:07:38.143Z,0.30
2023-04-26T19:10:06.993Z,0.30
2023-04-26T19:12:34.252Z,1.48
2023-04-26T19:15:01.931Z,0.63
2023-04-26T19:17:29.522Z,1.15
2023-04-26T19:19:56.914Z,0.98
2023-04-26T19:22:24.124Z,0.60
2023-04-26T19:24:51.595Z,0.40
2023-04-26T19:27:19.093Z,0.75
2023-04-26T19:29:46.382Z,0.60
2023-04-26T19:32:14.411Z,0.52
2023-04-26T19:34:41.673Z,0.45
2023-04-26T19:37:08.916Z,0.73
2023-04-26T19:39:36.191Z,0.77
2023-04-26T19:42:03.678Z,0.50
2023-04-26T19:44:31.340Z,0.63
2023-04-26T19:46:58.664Z,0.55
2023-04-26T19:49:28.523Z,0.70
2023-04-26T19:51:56.545Z,1.27
2023-04-26T19:54:23.829Z,0.55
2023-04-26T19:56:51.153Z,0.57
2023-04-26T19:59:18.458Z,0.77
2023-04-26T20:01:45.937Z,0.73
2023-04-26T20:04:13.357Z,0.30
2023-04-26T20:06:40.757Z,0.35
2023-04-26T20:09:09.053Z,0.57
2023-04-26T20:11:36.648Z,0.93
2023-04-26T20:14:03.915Z,0.50
2023-04-26T20:16:31.241Z,0.98
2023-04-26T20:18:58.531Z,1.30
2023-04-26T20:21:28.956Z,1.08
2023-04-26T20:23:56.734Z,1.50
2023-04-26T20:26:24.109Z,0.95
2023-04-26T20:28:51.436Z,0.90
2023-04-26T20:31:18.914Z,0.50
2023-04-26T20:33:46.239Z,0.77
2023-04-26T20:36:14.162Z,0.73
2023-04-26T20:38:41.430Z,0.60
2023-04-26T20:41:08.243Z,0.40
2023-04-26T20:43:35.324Z,0.55
2023-04-26T20:46:02.087Z,0.60
2023-04-26T20:48:28.911Z,0.60
2023-04-26T20:50:57.040Z,1.00
2023-04-26T20:53:23.870Z,1.10
2023-04-26T20:55:53.704Z,1.42
2023-04-26T20:58:20.688Z,0.70
2023-04-26T21:00:51.409Z,1.05
2023-04-26T21:03:18.734Z,1.05
2023-04-26T21:05:45.705Z,1.88
2023-04-26T21:08:12.468Z,2.28
2023-04-26T21:10:39.248Z,1.83
2023-04-26T21:13:06.023Z,2.83
2023-04-26T21:15:33.452Z,2.63
2023-04-26T21:18:00.528Z,3.67
2023-04-26T21:20:27.300Z,3.00
2023-04-26T21:22:54.111Z,2.00
2023-04-26T21:25:21.706Z,1.60
2023-04-26T21:27:50.821Z,3.63
2023-04-26T21:30:17.901Z,2.08
2023-04-26T21:32:44.901Z,1.30
2023-04-26T21:35:11.763Z,0.80
2023-04-26T21:37:38.649Z,1.35
2023-04-26T21:40:06.558Z,0.68
2023-04-26T21:42:33.318Z,1.10
2023-04-26T21:45:00.047Z,1.58
2023-04-26T21:47:26.855Z,1.30
2023-04-26T21:49:53.631Z,0.77
2023-04-26T21:52:20.780Z,1.00
2023-04-26T21:54:47.536Z,1.02
2023-04-26T21:57:14.249Z,1.13
2023-04-26T21:59:43.630Z,1.08
2023-04-26T22:02:10.567Z,0.50
2023-04-26T22:04:37.338Z,2.15
2023-04-26T22:07:04.133Z,0.88
2023-04-26T22:09:30.902Z,0.98
2023-04-26T22:11:57.709Z,0.88
2023-04-26T22:14:24.473Z,0.60
2023-04-26T22:16:51.446Z,1.15
2023-04-26T22:19:18.235Z,0.63
2023-04-26T22:21:45.052Z,2.17
2023-04-26T22:24:11.824Z,0.60
2023-04-26T22:26:38.637Z,0.80
2023-04-26T22:29:05.468Z,0.85
2023-04-26T22:31:32.246Z,1.40
2023-04-26T22:33:59.054Z,1.00
2023-04-26T22:36:25.967Z,2.67
2023-04-26T22:38:52.771Z,1.75
2023-04-26T22:41:19.479Z,0.70
2023-04-26T22:43:46.218Z,0.82
2023-04-26T22:46:13.107Z,0.60
2023-04-26T22:48:39.884Z,0.47
2023-04-26T22:51:07.090Z,1.27
2023-04-26T22:53:33.854Z,1.05
2023-04-26T22:56:00.681Z,0.80
2023-04-26T22:58:27.397Z,0.70
2023-04-26T23:00:54.353Z,1.17
2023-04-26T23:03:21.552Z,0.68
2023-04-26T23:05:48.695Z,0.77
2023-04-26T23:08:15.768Z,0.70
2023-04-26T23:10:42.510Z,1.77
2023-04-26T23:13:09.808Z,0.70
2023-04-26T23:15:37.067Z,0.60
2023-04-26T23:18:04.081Z,0.95
2023-04-26T23:20:30.896Z,0.50
2023-04-26T23:22:57.672Z,0.93
2023-04-26T23:25:24.440Z,0.55
2023-04-26T23:27:51.139Z,1.33
2023-04-26T23:30:18.170Z,1.73
2023-04-26T23:32:44.949Z,0.85
2023-04-26T23:35:11.761Z,0.65
2023-04-26T23:37:38.574Z,0.60
2023-04-26T23:40:06.664Z,0.60
2023-04-26T23:42:33.415Z,0.55
2023-04-26T23:45:00.249Z,0.40
2023-04-26T23:47:27.489Z,0.60
2023-04-26T23:49:54.287Z,0.43
2023-04-26T23:52:21.071Z,1.27
2023-04-26T23:54:47.808Z,0.57
2023-04-26T23:57:14.538Z,0.50
2023-04-26T23:59:41.379Z,0.60
